sensor_id;sensor_type;location;lat;lon;timestamp;P1;durP1;ratioP1;P2;durP2;ratioP2
74124;SDS011;62475;52.192;5.396;2023-07-24T00:02:23;5.97;;;3.40;;
74124;SDS011;62475;52.192;5.396;2023-07-24T00:04:49;4.87;;;3.30;;
74124;SDS011;62475;52.192;5.396;2023-07-24T00:07:14;5.67;;;3.57;;
74124;SDS011;62475;52.192;5.396;2023-07-24T00:09:39;7.03;;;3.60;;
74124;SDS011;62475;52.192;5.396;2023-07-24T00:12:04;4.33;;;3.50;;
74124;SDS011;62475;52.192;5.396;2023-07-24T00:14:30;5.15;;;3.20;;
74124;SDS011;62475;52.192;5.396;2023-07-24T00:16:55;5.60;;;3.33;;
74124;SDS011;62475;52.192;5.396;2023-07-24T00:19:20;6.67;;;2.97;;
74124;SDS011;62475;52.192;5.396;2023-07-24T00:21:45;6.90;;;3.47;;
74124;SDS011;62475;52.192;5.396;2023-07-24T00:24:11;5.30;;;3.33;;
74124;SDS011;62475;52.192;5.396;2023-07-24T00:26:36;4.43;;;2.93;;
74124;SDS011;62475;52.192;5.396;2023-07-24T00:29:01;5.63;;;3.20;;
74124;SDS011;62475;52.192;5.396;2023-07-24T00:31:26;5.30;;;3.47;;
74124;SDS011;62475;52.192;5.396;2023-07-24T00:33:51;3.90;;;2.60;;
74124;SDS011;62475;52.192;5.396;2023-07-24T00:36:17;5.07;;;3.50;;
74124;SDS011;62475;52.192;5.396;2023-07-24T00:38:42;6.27;;;3.40;;
74124;SDS011;62475;52.192;5.396;2023-07-24T00:41:07;5.17;;;3.10;;
74124;SDS011;62475;52.192;5.396;2023-07-24T00:43:32;4.87;;;3.17;;
74124;SDS011;62475;52.192;5.396;2023-07-24T00:45:57;4.80;;;2.90;;
74124;SDS011;62475;52.192;5.396;2023-07-24T00:48:23;5.53;;;3.38;;
74124;SDS011;62475;52.192;5.396;2023-07-24T00:50:48;5.35;;;3.10;;
74124;SDS011;62475;52.192;5.396;2023-07-24T00:53:13;5.57;;;3.73;;
74124;SDS011;62475;52.192;5.396;2023-07-24T00:55:40;6.63;;;3.42;;
74124;SDS011;62475;52.192;5.396;2023-07-24T00:58:06;5.35;;;3.60;;
74124;SDS011;62475;52.192;5.396;2023-07-24T01:00:31;4.22;;;2.85;;
74124;SDS011;62475;52.192;5.396;2023-07-24T01:02:57;4.60;;;3.60;;
74124;SDS011;62475;52.192;5.396;2023-07-24T01:05:24;7.18;;;3.45;;
74124;SDS011;62475;52.192;5.396;2023-07-24T01:07:50;5.00;;;3.55;;
74124;SDS011;62475;52.192;5.396;2023-07-24T01:10:15;4.55;;;3.20;;
74124;SDS011;62475;52.192;5.396;2023-07-24T01:17:48;5.27;;;3.50;;
74124;SDS011;62475;52.192;5.396;2023-07-24T01:20:13;6.00;;;3.83;;
74124;SDS011;62475;52.192;5.396;2023-07-24T01:22:48;7.60;;;3.95;;
74124;SDS011;62475;52.192;5.396;2023-07-24T01:25:18;6.30;;;3.97;;
74124;SDS011;62475;52.192;5.396;2023-07-24T01:27:48;5.93;;;3.22;;
74124;SDS011;62475;52.192;5.396;2023-07-24T01:30:14;4.50;;;3.10;;
74124;SDS011;62475;52.192;5.396;2023-07-24T01:32:39;4.85;;;2.97;;
74124;SDS011;62475;52.192;5.396;2023-07-24T01:35:05;4.68;;;3.00;;
74124;SDS011;62475;52.192;5.396;2023-07-24T01:37:30;4.38;;;2.85;;
74124;SDS011;62475;52.192;5.396;2023-07-24T01:39:56;5.55;;;3.33;;
74124;SDS011;62475;52.192;5.396;2023-07-24T01:42:21;5.75;;;3.70;;
74124;SDS011;62475;52.192;5.396;2023-07-24T01:44:54;5.38;;;3.30;;
74124;SDS011;62475;52.192;5.396;2023-07-24T01:47:19;5.18;;;3.55;;
74124;SDS011;62475;52.192;5.396;2023-07-24T01:49:45;5.95;;;3.30;;
74124;SDS011;62475;52.192;5.396;2023-07-24T01:52:10;4.60;;;2.97;;
74124;SDS011;62475;52.192;5.396;2023-07-24T01:54:35;7.07;;;3.20;;
74124;SDS011;62475;52.192;5.396;2023-07-24T01:57:00;4.60;;;3.33;;
74124;SDS011;62475;52.192;5.396;2023-07-24T01:59:25;5.63;;;3.83;;
74124;SDS011;62475;52.192;5.396;2023-07-24T02:01:51;5.13;;;3.33;;
74124;SDS011;62475;52.192;5.396;2023-07-24T02:04:16;5.93;;;3.63;;
74124;SDS011;62475;52.192;5.396;2023-07-24T02:06:42;5.70;;;3.73;;
74124;SDS011;62475;52.192;5.396;2023-07-24T02:09:07;5.23;;;3.30;;
74124;SDS011;62475;52.192;5.396;2023-07-24T02:11:32;4.43;;;2.93;;
74124;SDS011;62475;52.192;5.396;2023-07-24T02:13:57;5.70;;;3.50;;
74124;SDS011;62475;52.192;5.396;2023-07-24T02:16:22;4.90;;;3.43;;
74124;SDS011;62475;52.192;5.396;2023-07-24T02:18:48;4.97;;;3.20;;
74124;SDS011;62475;52.192;5.396;2023-07-24T02:21:13;6.47;;;3.40;;
74124;SDS011;62475;52.192;5.396;2023-07-24T02:23:38;5.07;;;3.00;;
74124;SDS011;62475;52.192;5.396;2023-07-24T02:26:03;5.23;;;3.00;;
74124;SDS011;62475;52.192;5.396;2023-07-24T02:28:28;7.00;;;2.90;;
74124;SDS011;62475;52.192;5.396;2023-07-24T02:30:54;5.50;;;3.37;;
74124;SDS011;62475;52.192;5.396;2023-07-24T02:33:22;7.90;;;3.30;;
74124;SDS011;62475;52.192;5.396;2023-07-24T02:35:49;5.82;;;3.28;;
74124;SDS011;62475;52.192;5.396;2023-07-24T02:38:14;5.47;;;3.45;;
74124;SDS011;62475;52.192;5.396;2023-07-24T02:40:40;5.13;;;3.17;;
74124;SDS011;62475;52.192;5.396;2023-07-24T02:43:05;5.72;;;3.20;;
74124;SDS011;62475;52.192;5.396;2023-07-24T02:45:33;4.20;;;3.27;;
74124;SDS011;62475;52.192;5.396;2023-07-24T02:47:58;5.57;;;3.17;;
74124;SDS011;62475;52.192;5.396;2023-07-24T02:50:23;4.50;;;3.40;;
74124;SDS011;62475;52.192;5.396;2023-07-24T02:52:48;5.13;;;3.40;;
74124;SDS011;62475;52.192;5.396;2023-07-24T02:55:14;5.30;;;3.13;;
74124;SDS011;62475;52.192;5.396;2023-07-24T02:57:39;4.70;;;3.27;;
74124;SDS011;62475;52.192;5.396;2023-07-24T03:00:04;4.83;;;3.27;;
74124;SDS011;62475;52.192;5.396;2023-07-24T03:02:30;4.50;;;3.05;;
74124;SDS011;62475;52.192;5.396;2023-07-24T03:04:55;5.32;;;3.28;;
74124;SDS011;62475;52.192;5.396;2023-07-24T03:07:20;5.80;;;3.27;;
74124;SDS011;62475;52.192;5.396;2023-07-24T03:09:46;6.20;;;4.13;;
74124;SDS011;62475;52.192;5.396;2023-07-24T03:12:11;5.80;;;3.40;;
74124;SDS011;62475;52.192;5.396;2023-07-24T03:14:36;6.00;;;3.57;;
74124;SDS011;62475;52.192;5.396;2023-07-24T03:17:01;7.00;;;3.93;;
74124;SDS011;62475;52.192;5.396;2023-07-24T03:19:27;6.93;;;3.63;;
74124;SDS011;62475;52.192;5.396;2023-07-24T03:21:52;5.90;;;4.00;;
74124;SDS011;62475;52.192;5.396;2023-07-24T03:24:17;5.80;;;3.80;;
74124;SDS011;62475;52.192;5.396;2023-07-24T03:26:42;7.07;;;4.43;;
74124;SDS011;62475;52.192;5.396;2023-07-24T03:29:07;7.00;;;4.70;;
74124;SDS011;62475;52.192;5.396;2023-07-24T03:31:33;10.23;;;4.87;;
74124;SDS011;62475;52.192;5.396;2023-07-24T03:33:58;7.10;;;4.27;;
74124;SDS011;62475;52.192;5.396;2023-07-24T03:36:23;6.73;;;4.07;;
74124;SDS011;62475;52.192;5.396;2023-07-24T03:38:48;5.97;;;4.43;;
74124;SDS011;62475;52.192;5.396;2023-07-24T03:41:13;6.13;;;3.90;;
74124;SDS011;62475;52.192;5.396;2023-07-24T03:43:39;7.13;;;4.37;;
74124;SDS011;62475;52.192;5.396;2023-07-24T03:46:04;7.67;;;4.43;;
74124;SDS011;62475;52.192;5.396;2023-07-24T03:48:29;7.73;;;4.37;;
74124;SDS011;62475;52.192;5.396;2023-07-24T03:50:58;6.23;;;4.27;;
74124;SDS011;62475;52.192;5.396;2023-07-24T03:53:26;7.00;;;4.35;;
74124;SDS011;62475;52.192;5.396;2023-07-24T03:55:52;11.30;;;6.15;;
74124;SDS011;62475;52.192;5.396;2023-07-24T03:58:17;6.90;;;5.03;;
74124;SDS011;62475;52.192;5.396;2023-07-24T04:00:42;7.63;;;5.17;;
74124;SDS011;62475;52.192;5.396;2023-07-24T04:03:07;8.70;;;4.83;;
74124;SDS011;62475;52.192;5.396;2023-07-24T04:05:34;9.33;;;5.23;;
74124;SDS011;62475;52.192;5.396;2023-07-24T04:07:59;8.43;;;4.85;;
74124;SDS011;62475;52.192;5.396;2023-07-24T04:10:24;8.37;;;5.30;;
74124;SDS011;62475;52.192;5.396;2023-07-24T04:12:49;10.50;;;5.80;;
74124;SDS011;62475;52.192;5.396;2023-07-24T04:15:15;9.02;;;5.20;;
74124;SDS011;62475;52.192;5.396;2023-07-24T04:17:40;10.97;;;5.47;;
74124;SDS011;62475;52.192;5.396;2023-07-24T04:20:06;9.25;;;5.88;;
74124;SDS011;62475;52.192;5.396;2023-07-24T04:22:32;9.65;;;5.75;;
74124;SDS011;62475;52.192;5.396;2023-07-24T04:24:57;8.77;;;5.40;;
74124;SDS011;62475;52.192;5.396;2023-07-24T04:27:22;9.17;;;5.20;;
74124;SDS011;62475;52.192;5.396;2023-07-24T04:29:47;13.13;;;6.17;;
74124;SDS011;62475;52.192;5.396;2023-07-24T04:32:13;9.13;;;5.70;;
74124;SDS011;62475;52.192;5.396;2023-07-24T04:34:38;10.97;;;5.40;;
74124;SDS011;62475;52.192;5.396;2023-07-24T04:37:03;10.20;;;5.50;;
74124;SDS011;62475;52.192;5.396;2023-07-24T04:39:28;8.48;;;5.00;;
74124;SDS011;62475;52.192;5.396;2023-07-24T04:41:53;8.90;;;4.90;;
74124;SDS011;62475;52.192;5.396;2023-07-24T04:44:20;7.93;;;5.18;;
74124;SDS011;62475;52.192;5.396;2023-07-24T04:46:45;7.97;;;5.43;;
74124;SDS011;62475;52.192;5.396;2023-07-24T04:49:10;8.30;;;5.17;;
74124;SDS011;62475;52.192;5.396;2023-07-24T04:51:35;9.20;;;5.30;;
74124;SDS011;62475;52.192;5.396;2023-07-24T04:54:01;8.10;;;4.80;;
74124;SDS011;62475;52.192;5.396;2023-07-24T04:56:26;8.83;;;5.70;;
74124;SDS011;62475;52.192;5.396;2023-07-24T04:58:54;9.38;;;5.32;;
74124;SDS011;62475;52.192;5.396;2023-07-24T05:01:19;9.80;;;5.77;;
74124;SDS011;62475;52.192;5.396;2023-07-24T05:03:45;10.25;;;5.50;;
74124;SDS011;62475;52.192;5.396;2023-07-24T05:06:10;9.50;;;5.03;;
74124;SDS011;62475;52.192;5.396;2023-07-24T05:08:35;9.10;;;5.20;;
74124;SDS011;62475;52.192;5.396;2023-07-24T05:11:00;10.43;;;5.23;;
74124;SDS011;62475;52.192;5.396;2023-07-24T05:13:26;12.67;;;5.50;;
74124;SDS011;62475;52.192;5.396;2023-07-24T05:15:51;9.68;;;5.45;;
74124;SDS011;62475;52.192;5.396;2023-07-24T05:18:16;11.63;;;5.20;;
74124;SDS011;62475;52.192;5.396;2023-07-24T05:20:45;11.73;;;6.10;;
74124;SDS011;62475;52.192;5.396;2023-07-24T05:23:11;9.30;;;4.90;;
74124;SDS011;62475;52.192;5.396;2023-07-24T05:25:36;8.88;;;5.60;;
74124;SDS011;62475;52.192;5.396;2023-07-24T05:28:02;10.52;;;5.13;;
74124;SDS011;62475;52.192;5.396;2023-07-24T05:30:27;10.27;;;5.63;;
74124;SDS011;62475;52.192;5.396;2023-07-24T05:32:53;8.25;;;5.28;;
74124;SDS011;62475;52.192;5.396;2023-07-24T05:35:18;10.87;;;5.63;;
74124;SDS011;62475;52.192;5.396;2023-07-24T05:37:43;9.70;;;5.07;;
74124;SDS011;62475;52.192;5.396;2023-07-24T05:40:09;11.03;;;6.13;;
74124;SDS011;62475;52.192;5.396;2023-07-24T05:42:34;9.43;;;5.60;;
74124;SDS011;62475;52.192;5.396;2023-07-24T05:45:06;8.98;;;4.95;;
74124;SDS011;62475;52.192;5.396;2023-07-24T05:47:32;10.25;;;5.35;;
74124;SDS011;62475;52.192;5.396;2023-07-24T05:49:57;10.87;;;5.47;;
74124;SDS011;62475;52.192;5.396;2023-07-24T05:52:22;8.63;;;4.80;;
74124;SDS011;62475;52.192;5.396;2023-07-24T05:54:47;7.90;;;5.13;;
74124;SDS011;62475;52.192;5.396;2023-07-24T05:57:12;9.03;;;4.73;;
74124;SDS011;62475;52.192;5.396;2023-07-24T05:59:38;8.80;;;4.67;;
74124;SDS011;62475;52.192;5.396;2023-07-24T06:02:03;9.50;;;5.00;;
74124;SDS011;62475;52.192;5.396;2023-07-24T06:04:28;8.32;;;4.63;;
74124;SDS011;62475;52.192;5.396;2023-07-24T06:06:53;10.97;;;4.60;;
74124;SDS011;62475;52.192;5.396;2023-07-24T06:09:18;9.80;;;5.00;;
74124;SDS011;62475;52.192;5.396;2023-07-24T06:11:44;10.10;;;4.70;;
74124;SDS011;62475;52.192;5.396;2023-07-24T06:14:09;8.20;;;4.27;;
74124;SDS011;62475;52.192;5.396;2023-07-24T06:16:34;8.27;;;4.03;;
74124;SDS011;62475;52.192;5.396;2023-07-24T06:18:59;8.93;;;4.20;;
74124;SDS011;62475;52.192;5.396;2023-07-24T06:21:24;9.47;;;4.70;;
74124;SDS011;62475;52.192;5.396;2023-07-24T06:23:49;7.10;;;4.07;;
74124;SDS011;62475;52.192;5.396;2023-07-24T06:26:15;8.50;;;4.77;;
74124;SDS011;62475;52.192;5.396;2023-07-24T06:28:40;6.87;;;3.60;;
74124;SDS011;62475;52.192;5.396;2023-07-24T06:31:05;9.37;;;3.53;;
74124;SDS011;62475;52.192;5.396;2023-07-24T06:33:30;7.60;;;3.37;;
74124;SDS011;62475;52.192;5.396;2023-07-24T06:35:55;7.50;;;3.37;;
74124;SDS011;62475;52.192;5.396;2023-07-24T06:38:21;7.73;;;3.47;;
74124;SDS011;62475;52.192;5.396;2023-07-24T06:40:46;8.55;;;3.72;;
74124;SDS011;62475;52.192;5.396;2023-07-24T06:43:11;8.77;;;3.92;;
74124;SDS011;62475;52.192;5.396;2023-07-24T06:45:37;5.70;;;3.10;;
74124;SDS011;62475;52.192;5.396;2023-07-24T06:48:02;6.70;;;3.43;;
74124;SDS011;62475;52.192;5.396;2023-07-24T06:50:27;7.05;;;3.60;;
74124;SDS011;62475;52.192;5.396;2023-07-24T06:52:52;7.00;;;3.27;;
74124;SDS011;62475;52.192;5.396;2023-07-24T06:55:18;10.98;;;3.50;;
74124;SDS011;62475;52.192;5.396;2023-07-24T06:57:44;7.10;;;4.57;;
74124;SDS011;62475;52.192;5.396;2023-07-24T07:00:09;7.27;;;3.07;;
74124;SDS011;62475;52.192;5.396;2023-07-24T07:02:36;5.80;;;3.00;;
74124;SDS011;62475;52.192;5.396;2023-07-24T07:05:03;7.97;;;3.33;;
74124;SDS011;62475;52.192;5.396;2023-07-24T07:07:28;7.07;;;3.45;;
74124;SDS011;62475;52.192;5.396;2023-07-24T07:09:54;7.00;;;2.57;;
74124;SDS011;62475;52.192;5.396;2023-07-24T07:12:19;8.03;;;3.30;;
74124;SDS011;62475;52.192;5.396;2023-07-24T07:14:44;7.80;;;3.13;;
74124;SDS011;62475;52.192;5.396;2023-07-24T07:17:09;7.63;;;2.87;;
74124;SDS011;62475;52.192;5.396;2023-07-24T07:19:34;6.80;;;3.13;;
74124;SDS011;62475;52.192;5.396;2023-07-24T07:22:01;6.90;;;2.92;;
74124;SDS011;62475;52.192;5.396;2023-07-24T07:24:26;6.50;;;3.30;;
74124;SDS011;62475;52.192;5.396;2023-07-24T07:26:51;4.30;;;2.47;;
74124;SDS011;62475;52.192;5.396;2023-07-24T07:29:16;6.43;;;2.85;;
74124;SDS011;62475;52.192;5.396;2023-07-24T07:31:42;5.20;;;3.60;;
74124;SDS011;62475;52.192;5.396;2023-07-24T07:34:07;5.63;;;3.00;;
74124;SDS011;62475;52.192;5.396;2023-07-24T07:36:32;6.53;;;3.20;;
74124;SDS011;62475;52.192;5.396;2023-07-24T07:38:57;10.03;;;3.17;;
74124;SDS011;62475;52.192;5.396;2023-07-24T07:41:22;6.73;;;3.53;;
74124;SDS011;62475;52.192;5.396;2023-07-24T07:43:48;5.03;;;3.13;;
74124;SDS011;62475;52.192;5.396;2023-07-24T07:46:13;5.23;;;3.30;;
74124;SDS011;62475;52.192;5.396;2023-07-24T07:48:38;5.50;;;3.20;;
74124;SDS011;62475;52.192;5.396;2023-07-24T07:51:03;7.63;;;3.33;;
74124;SDS011;62475;52.192;5.396;2023-07-24T07:53:28;5.73;;;3.10;;
74124;SDS011;62475;52.192;5.396;2023-07-24T07:55:57;7.57;;;3.80;;
74124;SDS011;62475;52.192;5.396;2023-07-24T07:58:22;7.30;;;3.22;;
74124;SDS011;62475;52.192;5.396;2023-07-24T08:00:48;6.47;;;3.28;;
74124;SDS011;62475;52.192;5.396;2023-07-24T08:03:13;6.97;;;3.30;;
74124;SDS011;62475;52.192;5.396;2023-07-24T08:05:38;6.70;;;3.07;;
74124;SDS011;62475;52.192;5.396;2023-07-24T08:08:03;6.80;;;3.77;;
74124;SDS011;62475;52.192;5.396;2023-07-24T08:10:29;7.22;;;3.42;;
74124;SDS011;62475;52.192;5.396;2023-07-24T08:12:54;7.27;;;3.37;;
74124;SDS011;62475;52.192;5.396;2023-07-24T08:15:19;6.63;;;3.40;;
74124;SDS011;62475;52.192;5.396;2023-07-24T08:17:44;5.90;;;3.67;;
74124;SDS011;62475;52.192;5.396;2023-07-24T08:20:09;8.30;;;3.20;;
74124;SDS011;62475;52.192;5.396;2023-07-24T08:22:35;8.45;;;3.47;;
74124;SDS011;62475;52.192;5.396;2023-07-24T08:25:00;5.40;;;2.83;;
74124;SDS011;62475;52.192;5.396;2023-07-24T08:27:25;6.40;;;3.23;;
74124;SDS011;62475;52.192;5.396;2023-07-24T08:29:51;5.33;;;3.03;;
74124;SDS011;62475;52.192;5.396;2023-07-24T08:32:18;6.32;;;3.97;;
74124;SDS011;62475;52.192;5.396;2023-07-24T08:34:43;6.70;;;3.03;;
74124;SDS011;62475;52.192;5.396;2023-07-24T08:37:08;9.07;;;3.30;;
74124;SDS011;62475;52.192;5.396;2023-07-24T08:39:33;7.00;;;4.03;;
74124;SDS011;62475;52.192;5.396;2023-07-24T08:41:58;7.63;;;3.70;;
74124;SDS011;62475;52.192;5.396;2023-07-24T08:44:24;6.03;;;3.13;;
74124;SDS011;62475;52.192;5.396;2023-07-24T08:46:50;7.80;;;3.42;;
74124;SDS011;62475;52.192;5.396;2023-07-24T08:49:16;6.32;;;3.45;;
74124;SDS011;62475;52.192;5.396;2023-07-24T08:51:42;9.85;;;4.05;;
74124;SDS011;62475;52.192;5.396;2023-07-24T08:54:08;6.82;;;3.67;;
74124;SDS011;62475;52.192;5.396;2023-07-24T08:56:34;6.47;;;3.80;;
74124;SDS011;62475;52.192;5.396;2023-07-24T08:59:01;6.68;;;3.72;;
74124;SDS011;62475;52.192;5.396;2023-07-24T09:01:26;6.33;;;3.93;;
74124;SDS011;62475;52.192;5.396;2023-07-24T09:03:51;6.85;;;3.72;;
74124;SDS011;62475;52.192;5.396;2023-07-24T09:06:16;7.30;;;3.77;;
74124;SDS011;62475;52.192;5.396;2023-07-24T09:08:42;6.50;;;3.57;;
74124;SDS011;62475;52.192;5.396;2023-07-24T09:11:08;8.98;;;3.58;;
74124;SDS011;62475;52.192;5.396;2023-07-24T09:13:37;6.60;;;3.78;;
74124;SDS011;62475;52.192;5.396;2023-07-24T09:16:03;11.55;;;4.07;;
74124;SDS011;62475;52.192;5.396;2023-07-24T09:18:41;5.82;;;3.72;;
74124;SDS011;62475;52.192;5.396;2023-07-24T09:21:06;7.97;;;3.90;;
74124;SDS011;62475;52.192;5.396;2023-07-24T09:23:31;8.50;;;4.00;;
74124;SDS011;62475;52.192;5.396;2023-07-24T09:25:57;7.93;;;3.90;;
74124;SDS011;62475;52.192;5.396;2023-07-24T09:28:22;6.95;;;4.85;;
74124;SDS011;62475;52.192;5.396;2023-07-24T09:30:51;7.28;;;4.50;;
74124;SDS011;62475;52.192;5.396;2023-07-24T09:33:17;7.03;;;4.60;;
74124;SDS011;62475;52.192;5.396;2023-07-24T09:35:42;9.20;;;4.50;;
74124;SDS011;62475;52.192;5.396;2023-07-24T09:38:08;6.67;;;4.30;;
74124;SDS011;62475;52.192;5.396;2023-07-24T09:40:37;10.10;;;4.63;;
74124;SDS011;62475;52.192;5.396;2023-07-24T09:43:13;10.23;;;4.80;;
74124;SDS011;62475;52.192;5.396;2023-07-24T09:45:38;6.53;;;3.70;;
74124;SDS011;62475;52.192;5.396;2023-07-24T09:48:04;7.87;;;3.83;;
74124;SDS011;62475;52.192;5.396;2023-07-24T09:50:29;8.75;;;3.55;;
74124;SDS011;62475;52.192;5.396;2023-07-24T09:52:54;7.87;;;4.03;;
74124;SDS011;62475;52.192;5.396;2023-07-24T09:55:25;7.22;;;4.45;;
74124;SDS011;62475;52.192;5.396;2023-07-24T09:57:53;6.55;;;4.03;;
74124;SDS011;62475;52.192;5.396;2023-07-24T10:00:19;8.57;;;4.40;;
74124;SDS011;62475;52.192;5.396;2023-07-24T10:02:45;6.32;;;4.30;;
74124;SDS011;62475;52.192;5.396;2023-07-24T10:05:11;8.07;;;5.07;;
74124;SDS011;62475;52.192;5.396;2023-07-24T10:07:36;9.95;;;4.60;;
74124;SDS011;62475;52.192;5.396;2023-07-24T10:10:02;7.35;;;4.43;;
74124;SDS011;62475;52.192;5.396;2023-07-24T10:12:27;9.88;;;5.13;;
74124;SDS011;62475;52.192;5.396;2023-07-24T10:14:55;7.95;;;5.38;;
74124;SDS011;62475;52.192;5.396;2023-07-24T10:20:15;6.75;;;4.88;;
74124;SDS011;62475;52.192;5.396;2023-07-24T10:22:41;8.82;;;4.30;;
74124;SDS011;62475;52.192;5.396;2023-07-24T10:25:07;7.63;;;4.78;;
74124;SDS011;62475;52.192;5.396;2023-07-24T10:27:35;6.55;;;4.75;;
74124;SDS011;62475;52.192;5.396;2023-07-24T10:30:01;7.05;;;4.22;;
74124;SDS011;62475;52.192;5.396;2023-07-24T10:32:27;7.57;;;4.25;;
74124;SDS011;62475;52.192;5.396;2023-07-24T10:35:08;9.32;;;4.68;;
74124;SDS011;62475;52.192;5.396;2023-07-24T10:39:59;6.75;;;4.38;;
74124;SDS011;62475;52.192;5.396;2023-07-24T10:42:25;8.43;;;4.00;;
74124;SDS011;62475;52.192;5.396;2023-07-24T10:44:50;6.97;;;4.27;;
74124;SDS011;62475;52.192;5.396;2023-07-24T10:47:26;7.78;;;4.07;;
74124;SDS011;62475;52.192;5.396;2023-07-24T10:49:51;9.40;;;4.10;;
74124;SDS011;62475;52.192;5.396;2023-07-24T10:52:16;10.60;;;4.73;;
74124;SDS011;62475;52.192;5.396;2023-07-24T10:54:41;7.23;;;4.13;;
74124;SDS011;62475;52.192;5.396;2023-07-24T10:57:06;6.77;;;4.57;;
74124;SDS011;62475;52.192;5.396;2023-07-24T10:59:38;7.63;;;4.13;;
74124;SDS011;62475;52.192;5.396;2023-07-24T11:02:03;6.85;;;4.32;;
74124;SDS011;62475;52.192;5.396;2023-07-24T11:04:29;6.47;;;4.35;;
74124;SDS011;62475;52.192;5.396;2023-07-24T11:06:54;8.82;;;4.07;;
74124;SDS011;62475;52.192;5.396;2023-07-24T11:09:22;10.90;;;4.65;;
74124;SDS011;62475;52.192;5.396;2023-07-24T11:11:47;5.97;;;3.63;;
74124;SDS011;62475;52.192;5.396;2023-07-24T11:14:16;9.45;;;4.07;;
74124;SDS011;62475;52.192;5.396;2023-07-24T11:16:50;7.60;;;4.47;;
74124;SDS011;62475;52.192;5.396;2023-07-24T11:19:22;6.78;;;4.00;;
74124;SDS011;62475;52.192;5.396;2023-07-24T11:21:48;7.13;;;4.38;;
74124;SDS011;62475;52.192;5.396;2023-07-24T11:24:14;8.40;;;4.40;;
74124;SDS011;62475;52.192;5.396;2023-07-24T11:26:39;8.17;;;5.07;;
74124;SDS011;62475;52.192;5.396;2023-07-24T11:29:10;9.85;;;4.18;;
74124;SDS011;62475;52.192;5.396;2023-07-24T11:31:36;6.10;;;3.72;;
74124;SDS011;62475;52.192;5.396;2023-07-24T11:34:02;7.57;;;4.07;;
74124;SDS011;62475;52.192;5.396;2023-07-24T11:36:27;7.93;;;4.07;;
74124;SDS011;62475;52.192;5.396;2023-07-24T11:38:52;11.82;;;4.63;;
74124;SDS011;62475;52.192;5.396;2023-07-24T11:41:18;5.80;;;3.88;;
74124;SDS011;62475;52.192;5.396;2023-07-24T11:43:47;7.38;;;4.70;;
74124;SDS011;62475;52.192;5.396;2023-07-24T11:46:21;7.65;;;4.75;;
74124;SDS011;62475;52.192;5.396;2023-07-24T11:48:46;7.03;;;4.43;;
74124;SDS011;62475;52.192;5.396;2023-07-24T11:51:13;7.53;;;4.72;;
74124;SDS011;62475;52.192;5.396;2023-07-24T11:53:38;7.07;;;4.90;;
74124;SDS011;62475;52.192;5.396;2023-07-24T11:56:12;7.57;;;4.72;;
74124;SDS011;62475;52.192;5.396;2023-07-24T11:58:37;13.55;;;6.00;;
74124;SDS011;62475;52.192;5.396;2023-07-24T12:01:02;9.50;;;5.27;;
74124;SDS011;62475;52.192;5.396;2023-07-24T12:03:28;9.05;;;4.70;;
74124;SDS011;62475;52.192;5.396;2023-07-24T12:05:54;6.78;;;4.47;;
74124;SDS011;62475;52.192;5.396;2023-07-24T12:08:20;6.90;;;4.70;;
74124;SDS011;62475;52.192;5.396;2023-07-24T12:10:46;6.07;;;4.72;;
74124;SDS011;62475;52.192;5.396;2023-07-24T12:13:11;8.45;;;3.85;;
74124;SDS011;62475;52.192;5.396;2023-07-24T12:15:37;7.80;;;4.18;;
74124;SDS011;62475;52.192;5.396;2023-07-24T12:18:03;7.70;;;3.95;;
74124;SDS011;62475;52.192;5.396;2023-07-24T12:20:28;6.47;;;4.25;;
74124;SDS011;62475;52.192;5.396;2023-07-24T12:22:54;9.55;;;4.20;;
74124;SDS011;62475;52.192;5.396;2023-07-24T12:25:19;6.23;;;3.60;;
74124;SDS011;62475;52.192;5.396;2023-07-24T12:27:45;8.43;;;4.22;;
74124;SDS011;62475;52.192;5.396;2023-07-24T12:30:10;6.32;;;3.50;;
74124;SDS011;62475;52.192;5.396;2023-07-24T12:32:35;8.13;;;4.45;;
74124;SDS011;62475;52.192;5.396;2023-07-24T12:35:00;9.37;;;5.13;;
74124;SDS011;62475;52.192;5.396;2023-07-24T12:37:26;9.90;;;5.20;;
74124;SDS011;62475;52.192;5.396;2023-07-24T12:39:51;9.40;;;6.18;;
74124;SDS011;62475;52.192;5.396;2023-07-24T12:42:16;11.93;;;6.80;;
74124;SDS011;62475;52.192;5.396;2023-07-24T12:44:42;16.33;;;8.70;;
74124;SDS011;62475;52.192;5.396;2023-07-24T12:47:07;17.00;;;8.98;;
74124;SDS011;62475;52.192;5.396;2023-07-24T12:49:33;18.83;;;8.52;;
74124;SDS011;62475;52.192;5.396;2023-07-24T12:51:58;14.90;;;7.20;;
74124;SDS011;62475;52.192;5.396;2023-07-24T12:54:23;8.65;;;6.10;;
74124;SDS011;62475;52.192;5.396;2023-07-24T12:56:49;13.50;;;6.13;;
74124;SDS011;62475;52.192;5.396;2023-07-24T12:59:14;11.82;;;6.32;;
74124;SDS011;62475;52.192;5.396;2023-07-24T13:01:40;6.32;;;4.70;;
74124;SDS011;62475;52.192;5.396;2023-07-24T13:04:07;5.37;;;3.90;;
74124;SDS011;62475;52.192;5.396;2023-07-24T13:06:32;6.80;;;4.13;;
74124;SDS011;62475;52.192;5.396;2023-07-24T13:08:57;4.47;;;3.08;;
74124;SDS011;62475;52.192;5.396;2023-07-24T13:11:23;13.60;;;3.90;;
74124;SDS011;62475;52.192;5.396;2023-07-24T13:13:48;7.53;;;4.13;;
74124;SDS011;62475;52.192;5.396;2023-07-24T13:16:15;8.02;;;4.57;;
74124;SDS011;62475;52.192;5.396;2023-07-24T13:18:40;9.07;;;5.55;;
74124;SDS011;62475;52.192;5.396;2023-07-24T13:21:06;11.82;;;6.78;;
74124;SDS011;62475;52.192;5.396;2023-07-24T13:23:32;13.02;;;7.00;;
74124;SDS011;62475;52.192;5.396;2023-07-24T13:25:58;12.15;;;7.35;;
74124;SDS011;62475;52.192;5.396;2023-07-24T13:28:23;11.53;;;7.27;;
74124;SDS011;62475;52.192;5.396;2023-07-24T13:30:48;11.40;;;8.00;;
74124;SDS011;62475;52.192;5.396;2023-07-24T13:33:13;10.73;;;6.93;;
74124;SDS011;62475;52.192;5.396;2023-07-24T13:35:38;11.77;;;6.83;;
74124;SDS011;62475;52.192;5.396;2023-07-24T13:38:05;9.13;;;7.33;;
74124;SDS011;62475;52.192;5.396;2023-07-24T13:40:33;13.93;;;7.90;;
74124;SDS011;62475;52.192;5.396;2023-07-24T13:42:58;13.37;;;8.00;;
74124;SDS011;62475;52.192;5.396;2023-07-24T13:45:23;10.37;;;7.20;;
74124;SDS011;62475;52.192;5.396;2023-07-24T13:47:48;10.93;;;7.13;;
74124;SDS011;62475;52.192;5.396;2023-07-24T13:50:13;16.47;;;8.10;;
74124;SDS011;62475;52.192;5.396;2023-07-24T13:52:39;14.50;;;8.37;;
74124;SDS011;62475;52.192;5.396;2023-07-24T13:55:04;11.40;;;7.57;;
74124;SDS011;62475;52.192;5.396;2023-07-24T13:57:31;11.68;;;7.15;;
74124;SDS011;62475;52.192;5.396;2023-07-24T13:59:56;8.95;;;6.70;;
74124;SDS011;62475;52.192;5.396;2023-07-24T14:02:21;9.00;;;5.27;;
74124;SDS011;62475;52.192;5.396;2023-07-24T14:04:46;7.13;;;4.70;;
74124;SDS011;62475;52.192;5.396;2023-07-24T14:07:12;5.63;;;3.33;;
74124;SDS011;62475;52.192;5.396;2023-07-24T14:09:38;5.97;;;3.45;;
74124;SDS011;62475;52.192;5.396;2023-07-24T14:12:03;4.45;;;2.80;;
74124;SDS011;62475;52.192;5.396;2023-07-24T14:14:29;4.85;;;2.75;;
74124;SDS011;62475;52.192;5.396;2023-07-24T14:16:54;4.67;;;2.53;;
74124;SDS011;62475;52.192;5.396;2023-07-24T14:19:19;4.67;;;3.03;;
74124;SDS011;62475;52.192;5.396;2023-07-24T14:21:44;4.80;;;2.50;;
74124;SDS011;62475;52.192;5.396;2023-07-24T14:24:10;4.93;;;2.42;;
74124;SDS011;62475;52.192;5.396;2023-07-24T14:26:35;6.43;;;2.50;;
74124;SDS011;62475;52.192;5.396;2023-07-24T14:29:02;5.07;;;3.00;;
74124;SDS011;62475;52.192;5.396;2023-07-24T14:31:27;6.07;;;3.40;;
74124;SDS011;62475;52.192;5.396;2023-07-24T14:33:54;6.70;;;2.70;;
74124;SDS011;62475;52.192;5.396;2023-07-24T14:36:19;4.00;;;2.00;;
74124;SDS011;62475;52.192;5.396;2023-07-24T14:38:44;5.23;;;2.10;;
74124;SDS011;62475;52.192;5.396;2023-07-24T14:41:09;5.30;;;2.63;;
74124;SDS011;62475;52.192;5.396;2023-07-24T14:43:37;4.13;;;2.30;;
74124;SDS011;62475;52.192;5.396;2023-07-24T14:46:02;4.27;;;2.30;;
74124;SDS011;62475;52.192;5.396;2023-07-24T14:48:28;3.60;;;2.10;;